Huvudsida
METAR-TAF:

METAR-TAF

Flygplatser :

José Martís internationella flygplats

Havanna, Kuba

latitud: 22-59N, longitud: 082-24W, höjd: 59 m

Aktuellt väderrapport

Denna rapport gjordes för 1 timme och 0 minuter sedan, klockan 07:55 UTC
Vind 4 kt från nord/nordost
Temperatur 22°C
Fuktighet 83%
Tryck 1019 hPa
Sikt: 9000 m
Spridda moln på en höjd av 3000 ft

METAR: MUHA 160755Z 03004KT 9000 SCT030 22/19 Q1019

Tid: 03:55 (08:55 UTC)

Väderprognos

Denna rapport gjordes för 3 timmar och 55 minuter sedan, klockan 05:00 UTC
Prognos gäller från 16 kl. 06 UTC till 17 kl. 06 UTC
Vind 3 kt varierande vindriktning
Sikt: 9000 m
Spridda moln på en höjd av 3000 ft
Blir
från 16 kl. 14 UTC till 16 kl. 16 UTC
Vind 10 kt från nordost
Blir
från 17 kl. 01 UTC till 17 kl. 03 UTC
Vind 3 kt varierande vindriktning

TAF: MUHA 160500Z 1606/1706 VRB03KT 9000 SCT030 BECMG 1614/1616 04010KT BECMG 1701/1703 VRB03KT

Aktuella väderrapporter och prognoser från 4000 flygplatser (METAR- och TAF-rapporter).

De tillgängliga stationerna syns som gula och röda prickar på kartan.

För musen över prickarna för att se namnen på stationerna.

Klicka sedan för att få väderrapporter och prognoser.

För att ändra kartan: Klicka på de gröna knapparna med ett svart kors på för att zooma in; den gröna knappen med ett streck på för att zooma ut; eller på de gröna pilarna för angränsande kartor.


METAR-TAF: